Somerset, WI (54025)

12:17 AM CDT on September 03, 2015 (GMT -0500)
Richter Ranch | | Change Station
CLOSE
Current Station
Personal Weather Station
Location: Somerset, WI
Elevation: 899 ft
Nearby Weather Stations

Elev 899 ft 45.12 °N, 92.70 °W | Updated 30 seconds ago

Partly Cloudy
Partly Cloudy
66.6 °F
Feels Like 66.6 °F
N
1.0
Wind Variable Wind from ESE
Gusts 4.0 mph

Today
High -- | Low -- °F
--% Chance of Precip.
Yesterday
High -- | Low -- °F
Precip. -- in
6:34 AM 7:44 PM
Waning Gibbous, 74% visible
Pressure 29.94 in
Visibility 10.0 miles
Clouds Mostly Cloudy 3000 ft
Mostly Cloudy 4900 ft
Dew Point 66 °F
Humidity 97%
Rainfall 0.00 in
Snow Depth Not available.
UV 0 out of 12
Pollen 9.20 out of 12
Air Quality Not available.
Flu Activity Not available.
METAR KRNH 030455Z AUTO 00000KT 10SM BKN030 BKN049 20/19 A2994 RMK AO2 T01950190
Pressure 29.94 in
Visibility 10.0 miles
Clouds Mostly Cloudy 3000 ft
Mostly Cloudy 4900 ft
Dew Point 66 °F
Humidity 97%
Rainfall 0.00 in
Snow Depth Not available.
UV 0 out of 12
Pollen 9.20 out of 12
Air Quality Not available.
Flu Activity Not available.
METAR KRNH 030455Z AUTO 00000KT 10SM BKN030 BKN049 20/19 A2994 RMK AO2 T01950190

10-Day Weather Forecast

×

Almanac

Astronomy

Sep. 03, 2015 Rise Set
Actual Time
Civil Twilight
Nautical Twilight
Astronomical Twilight
Moon
Length of Visible Light
Length of Day
Tomorrow will be .
, % of the Moon is Illuminated

Today's Extremes

State Highs State Lows

Community

WunderPhotos

Upload Photos

1,851,914 photos uploaded!

WunderBlogs® & News

Nearby

Air Quality

  Air Quality AQ Index Pollutant
Not available.

Snow Depth

Station Depth Elevation

Earthquake Activity

City Distance Mag. Time & Date
Minimum magnitude displayed is 2.5.

Coastal Water Temperatures

Place Temperature

Stations

Nearby Weather Stations

Station Location Temp. Windchill Dew Point Humidity Wind Precip. Elev Updated Type